Time;durP1;ratioP1;P1;durP2;ratioP2;P2;SDS_P1;SDS_P2;PMS_P1;PMS_P2;Temp;Humidity;BMP_temperature;BMP_pressure;BME280_temperature;BME280_humidity;BME280_pressure;Samples;Min_cycle;Max_cycle;Signal;HPM_P1;HPM_P2
2021/12/04 00:02:07;;;;;;;7.93;6.55;;;;;;;;;;5082113;28;20229;-65
2021/12/04 00:04:37;;;;;;;6.47;5.80;;;;;;;;;;5082064;28;20200;-65
2021/12/04 00:07:05;;;;;;;9.27;6.25;;;;;;;;;;5082043;28;20253;-66
2021/12/04 00:09:32;;;;;;;10.27;6.35;;;;;;;;;;5081975;28;20263;-66
2021/12/04 00:12:00;;;;;;;6.22;5.63;;;;;;;;;;5082286;28;20192;-65
2021/12/04 00:14:27;;;;;;;7.13;6.32;;;;;;;;;;5082114;28;20196;-66
2021/12/04 00:16:53;;;;;;;10.00;7.00;;;;;;;;;;5082236;28;20556;-66
2021/12/04 00:19:20;;;;;;;9.55;6.25;;;;;;;;;;5082225;28;20196;-66
2021/12/04 00:21:48;;;;;;;7.90;5.70;;;;;;;;;;5082227;28;20216;-66
2021/12/04 00:24:15;;;;;;;8.95;6.38;;;;;;;;;;5081991;28;20204;-66
2021/12/04 00:26:42;;;;;;;9.73;5.93;;;;;;;;;;5081536;28;20204;-66
2021/12/04 00:29:08;;;;;;;7.20;5.63;;;;;;;;;;5081935;28;20196;-65
2021/12/04 00:31:35;;;;;;;6.55;5.90;;;;;;;;;;5081787;28;20193;-66
2021/12/04 00:34:01;;;;;;;11.02;5.93;;;;;;;;;;5082198;28;20234;-66
2021/12/04 00:36:34;;;;;;;6.72;5.97;;;;;;;;;;5081642;28;20200;-65
2021/12/04 00:49:58;;;;;;;6.75;5.18;;;;;;;;;;5081948;28;20222;-66
2021/12/04 00:52:24;;;;;;;7.50;5.88;;;;;;;;;;5081604;28;20185;-65
2021/12/04 00:54:52;;;;;;;8.55;5.40;;;;;;;;;;5081513;28;20208;-65
2021/12/04 00:57:18;;;;;;;6.10;5.32;;;;;;;;;;5081764;28;20197;-66
2021/12/04 00:59:45;;;;;;;6.90;5.78;;;;;;;;;;5081504;28;20204;-65
2021/12/04 01:02:11;;;;;;;6.18;5.03;;;;;;;;;;5081843;28;20212;-65
2021/12/04 01:04:38;;;;;;;5.13;4.63;;;;;;;;;;5081765;28;20484;-65
2021/12/04 01:07:04;;;;;;;5.50;5.00;;;;;;;;;;5083395;28;20196;-65
2021/12/04 01:09:31;;;;;;;5.30;4.80;;;;;;;;;;5085120;28;20196;-65
2021/12/04 01:11:59;;;;;;;5.22;4.53;;;;;;;;;;5085433;28;20199;-68
2021/12/04 01:14:27;;;;;;;5.68;5.18;;;;;;;;;;5085015;28;20203;-68
2021/12/04 01:16:54;;;;;;;6.30;4.72;;;;;;;;;;5085110;28;20196;-68
2021/12/04 01:19:20;;;;;;;6.07;5.43;;;;;;;;;;5085008;28;20196;-69
2021/12/04 01:21:47;;;;;;;6.85;4.60;;;;;;;;;;5085037;28;20224;-66
2021/12/04 01:24:14;;;;;;;5.82;5.30;;;;;;;;;;5085101;28;20238;-66
2021/12/04 01:26:40;;;;;;;6.88;5.57;;;;;;;;;;5084592;28;20196;-66
2021/12/04 01:29:08;;;;;;;5.97;5.07;;;;;;;;;;5084956;28;20208;-66
2021/12/04 01:31:35;;;;;;;7.00;4.97;;;;;;;;;;5084938;28;20200;-66
2021/12/04 01:34:01;;;;;;;7.28;5.78;;;;;;;;;;5084565;28;20192;-66
2021/12/04 01:36:29;;;;;;;5.80;5.18;;;;;;;;;;5084549;28;20203;-66
2021/12/04 01:38:55;;;;;;;5.03;4.72;;;;;;;;;;5084842;28;20219;-66
2021/12/04 01:41:22;;;;;;;5.80;4.53;;;;;;;;;;5084422;28;20216;-67
2021/12/04 01:43:48;;;;;;;7.05;5.07;;;;;;;;;;5084686;28;20196;-69
2021/12/04 01:46:16;;;;;;;5.35;4.90;;;;;;;;;;5084931;28;20408;-69
2021/12/04 01:48:42;;;;;;;5.90;5.40;;;;;;;;;;5085075;28;20368;-68
2021/12/04 01:51:09;;;;;;;7.43;5.65;;;;;;;;;;5084877;28;20201;-68
2021/12/04 01:53:35;;;;;;;6.72;6.03;;;;;;;;;;5084916;28;20203;-68
2021/12/04 01:56:02;;;;;;;5.57;5.00;;;;;;;;;;5084398;28;20197;-67
2021/12/04 01:58:29;;;;;;;6.53;5.45;;;;;;;;;;5084617;28;20204;-67
2021/12/04 02:00:55;;;;;;;8.30;5.60;;;;;;;;;;5084644;28;20387;-68
2021/12/04 02:03:23;;;;;;;8.35;6.53;;;;;;;;;;5084276;28;20489;-65
2021/12/04 02:05:50;;;;;;;7.72;6.38;;;;;;;;;;5084163;28;20203;-65
2021/12/04 02:08:18;;;;;;;10.65;6.40;;;;;;;;;;5084477;28;20204;-67
2021/12/04 02:10:45;;;;;;;7.57;5.70;;;;;;;;;;5084045;28;20203;-67
2021/12/04 02:13:11;;;;;;;5.60;5.20;;;;;;;;;;5084181;28;20192;-67
2021/12/04 02:15:38;;;;;;;5.55;4.85;;;;;;;;;;5083562;28;20196;-67
2021/12/04 02:18:05;;;;;;;5.45;4.95;;;;;;;;;;5084116;28;20383;-67
2021/12/04 02:20:34;;;;;;;5.25;4.85;;;;;;;;;;5084148;28;20200;-67
2021/12/04 02:23:01;;;;;;;6.85;4.93;;;;;;;;;;5083960;28;20460;-67
2021/12/04 02:25:27;;;;;;;5.47;4.97;;;;;;;;;;5083590;28;20203;-67
2021/12/04 02:27:57;;;;;;;6.50;5.45;;;;;;;;;;5083774;28;20476;-67
2021/12/04 02:30:25;;;;;;;6.40;5.38;;;;;;;;;;5083816;28;20192;-67
2021/12/04 02:32:52;;;;;;;5.32;4.90;;;;;;;;;;5084020;28;20337;-67
2021/12/04 02:35:19;;;;;;;5.25;4.75;;;;;;;;;;5084014;28;20377;-65
2021/12/04 02:37:47;;;;;;;6.25;5.43;;;;;;;;;;5083795;28;20216;-67
2021/12/04 02:40:15;;;;;;;5.97;4.78;;;;;;;;;;5083616;28;20238;-67
2021/12/04 02:42:41;;;;;;;5.43;4.95;;;;;;;;;;5083650;28;20536;-67
2021/12/04 02:45:09;;;;;;;6.07;5.47;;;;;;;;;;5083377;28;20246;-67
2021/12/04 02:47:36;;;;;;;6.75;5.57;;;;;;;;;;5083502;28;20219;-67
2021/12/04 02:50:05;;;;;;;6.18;5.53;;;;;;;;;;5083265;28;20197;-65
2021/12/04 02:52:32;;;;;;;5.70;5.10;;;;;;;;;;5083605;28;20384;-66
2021/12/04 02:54:59;;;;;;;6.65;6.03;;;;;;;;;;5082901;28;20210;-65
2021/12/04 02:57:27;;;;;;;6.38;5.75;;;;;;;;;;5083013;28;20196;-65
2021/12/04 02:59:54;;;;;;;6.18;5.63;;;;;;;;;;5082983;28;20205;-65
2021/12/04 03:02:21;;;;;;;6.15;5.45;;;;;;;;;;5083244;28;20242;-65
2021/12/04 03:04:48;;;;;;;5.60;5.03;;;;;;;;;;5082676;28;20196;-67
2021/12/04 03:07:15;;;;;;;5.90;5.40;;;;;;;;;;5083105;28;20242;-65
2021/12/04 03:09:42;;;;;;;6.28;5.65;;;;;;;;;;5082844;28;20196;-65
2021/12/04 03:12:10;;;;;;;6.40;5.85;;;;;;;;;;5083086;28;20192;-66
2021/12/04 03:14:37;;;;;;;6.10;5.60;;;;;;;;;;5082628;28;20197;-67
2021/12/04 03:17:03;;;;;;;6.20;5.60;;;;;;;;;;5083003;28;20272;-68
2021/12/04 03:19:30;;;;;;;8.68;6.30;;;;;;;;;;5083008;28;20200;-68
2021/12/04 03:21:57;;;;;;;7.00;5.70;;;;;;;;;;5082818;28;20573;-67
2021/12/04 03:24:24;;;;;;;5.78;5.25;;;;;;;;;;5082638;28;20224;-67
2021/12/04 03:26:51;;;;;;;6.97;6.05;;;;;;;;;;5082718;28;20205;-65
2021/12/04 03:29:22;;;;;;;6.32;5.78;;;;;;;;;;5082399;28;20447;-65
2021/12/04 03:40:37;;;;;;;8.15;6.30;;;;;;;;;;5043432;28;20194;-66
2021/12/04 03:43:05;;;;;;;6.68;5.85;;;;;;;;;;5099787;28;20200;-67
2021/12/04 03:45:33;;;;;;;8.25;6.10;;;;;;;;;;5099427;28;20216;-65
2021/12/04 03:48:06;;;;;;;6.97;6.05;;;;;;;;;;5099807;28;20200;-67
2021/12/04 03:50:34;;;;;;;7.70;6.28;;;;;;;;;;5099865;28;20351;-67
2021/12/04 03:53:01;;;;;;;6.45;5.85;;;;;;;;;;5100085;28;20208;-67
2021/12/04 03:55:28;;;;;;;6.57;5.90;;;;;;;;;;5099592;28;20204;-67
2021/12/04 03:57:54;;;;;;;7.38;6.07;;;;;;;;;;5099546;28;20411;-67
2021/12/04 04:00:20;;;;;;;6.43;5.60;;;;;;;;;;5099547;28;20196;-67
2021/12/04 04:02:47;;;;;;;7.55;5.40;;;;;;;;;;5099404;28;20191;-67
2021/12/04 04:05:13;;;;;;;6.35;5.50;;;;;;;;;;5099334;28;20234;-65
2021/12/04 04:07:41;;;;;;;7.10;5.63;;;;;;;;;;5099192;28;20241;-65
2021/12/04 04:10:08;;;;;;;7.22;5.40;;;;;;;;;;5099475;28;20430;-65
2021/12/04 04:12:35;;;;;;;8.32;5.57;;;;;;;;;;5099353;28;20269;-65
2021/12/04 04:15:01;;;;;;;5.65;5.15;;;;;;;;;;5099185;28;20188;-65
2021/12/04 04:17:31;;;;;;;5.15;4.68;;;;;;;;;;5099164;28;20196;-65
2021/12/04 04:19:57;;;;;;;5.22;4.82;;;;;;;;;;5099074;28;20200;-65
2021/12/04 04:22:24;;;;;;;5.82;5.15;;;;;;;;;;5099389;28;20545;-65
2021/12/04 04:24:51;;;;;;;5.55;4.75;;;;;;;;;;5099663;28;20192;-67
2021/12/04 04:27:18;;;;;;;5.95;5.35;;;;;;;;;;5100378;28;20203;-67
2021/12/04 04:29:44;;;;;;;5.25;4.65;;;;;;;;;;5100162;28;20195;-67
2021/12/04 04:32:11;;;;;;;6.65;5.03;;;;;;;;;;5099197;28;20230;-65
2021/12/04 04:34:38;;;;;;;6.45;4.82;;;;;;;;;;5098385;28;20216;-64
2021/12/04 04:37:17;;;;;;;5.13;4.72;;;;;;;;;;5098862;28;20290;-64
2021/12/04 04:59:23;;;;;;;5.13;4.57;;;;;;;;;;5079616;28;20194;-68
2021/12/04 05:10:39;;;;;;;4.40;4.03;;;;;;;;;;5084774;28;20425;-65
2021/12/04 05:13:07;;;;;;;5.28;4.50;;;;;;;;;;5084579;28;20248;-65
2021/12/04 05:15:39;;;;;;;5.07;4.32;;;;;;;;;;5084225;28;20200;-65
2021/12/04 05:18:12;;;;;;;4.78;4.15;;;;;;;;;;5084744;28;20184;-65
2021/12/04 05:20:39;;;;;;;4.40;4.10;;;;;;;;;;5084323;28;20212;-65
2021/12/04 05:23:08;;;;;;;4.63;4.32;;;;;;;;;;5084390;28;20570;-65
2021/12/04 05:25:36;;;;;;;5.90;4.82;;;;;;;;;;5084201;28;20250;-65
2021/12/04 05:28:02;;;;;;;5.07;4.57;;;;;;;;;;5084372;28;20496;-65
2021/12/04 05:30:29;;;;;;;5.50;5.03;;;;;;;;;;5084668;28;20204;-67
2021/12/04 05:32:56;;;;;;;5.78;4.70;;;;;;;;;;5084020;28;20204;-68
2021/12/04 05:35:23;;;;;;;4.75;4.32;;;;;;;;;;5084091;28;20196;-68
2021/12/04 05:37:49;;;;;;;5.28;4.65;;;;;;;;;;5084061;28;20196;-68
2021/12/04 05:40:16;;;;;;;5.90;5.28;;;;;;;;;;5084058;28;20197;-68
2021/12/04 05:42:43;;;;;;;4.63;4.20;;;;;;;;;;5084096;28;20222;-68
2021/12/04 05:45:16;;;;;;;5.18;4.07;;;;;;;;;;5084478;28;20375;-66
2021/12/04 05:47:46;;;;;;;4.68;4.25;;;;;;;;;;5083841;28;20497;-66
2021/12/04 05:50:24;;;;;;;6.03;4.75;;;;;;;;;;5083959;28;20204;-66
2021/12/04 05:53:03;;;;;;;4.53;4.13;;;;;;;;;;5083691;28;20185;-66
2021/12/04 05:55:31;;;;;;;4.65;4.35;;;;;;;;;;5083649;28;20335;-66
2021/12/04 05:57:57;;;;;;;5.38;4.85;;;;;;;;;;5083244;28;20196;-68
2021/12/04 06:00:25;;;;;;;4.60;4.20;;;;;;;;;;5083540;28;20203;-68
2021/12/04 06:02:52;;;;;;;4.97;4.50;;;;;;;;;;5085070;28;20196;-68
2021/12/04 06:05:20;;;;;;;4.50;4.10;;;;;;;;;;5083752;28;20197;-66
2021/12/04 06:07:46;;;;;;;5.00;4.55;;;;;;;;;;5083671;28;20374;-66
2021/12/04 06:10:13;;;;;;;4.68;4.20;;;;;;;;;;5083472;28;20226;-66
2021/12/04 06:12:39;;;;;;;6.22;4.05;;;;;;;;;;5083425;28;20566;-66
2021/12/04 06:15:06;;;;;;;4.93;3.92;;;;;;;;;;5082846;28;20235;-66
2021/12/04 06:17:33;;;;;;;4.00;3.70;;;;;;;;;;5083414;28;20277;-66
2021/12/04 06:22:45;;;;;;;3.60;3.40;;;;;;;;;;5083279;28;20239;-68
2021/12/04 06:25:13;;;;;;;4.60;3.58;;;;;;;;;;5082777;28;20382;-68
2021/12/04 06:27:39;;;;;;;4.40;3.97;;;;;;;;;;5083266;28;20226;-68
2021/12/04 06:30:07;;;;;;;4.13;3.83;;;;;;;;;;5083020;28;20233;-66
2021/12/04 06:32:35;;;;;;;6.53;4.63;;;;;;;;;;5082813;28;20216;-65
2021/12/04 06:35:02;;;;;;;3.65;3.45;;;;;;;;;;5082615;28;20216;-66
2021/12/04 06:37:28;;;;;;;5.35;3.97;;;;;;;;;;5082847;28;20242;-70
2021/12/04 06:39:56;;;;;;;3.80;3.50;;;;;;;;;;5083427;28;20235;-70
2021/12/04 06:42:23;;;;;;;3.90;3.60;;;;;;;;;;5083283;28;20242;-70
2021/12/04 06:44:52;;;;;;;3.95;3.50;;;;;;;;;;5082789;28;20213;-69
2021/12/04 06:47:18;;;;;;;6.95;3.70;;;;;;;;;;5083007;28;20196;-69
2021/12/04 06:49:45;;;;;;;4.10;3.80;;;;;;;;;;5082883;28;20384;-69
2021/12/04 06:52:15;;;;;;;4.45;4.05;;;;;;;;;;5082526;28;20196;-69
2021/12/04 06:54:49;;;;;;;4.13;3.83;;;;;;;;;;5082897;28;20414;-70
2021/12/04 06:57:17;;;;;;;5.10;4.22;;;;;;;;;;5083350;28;20193;-70
2021/12/04 06:59:46;;;;;;;4.63;4.15;;;;;;;;;;5082616;28;20196;-69
2021/12/04 07:02:13;;;;;;;5.60;4.20;;;;;;;;;;5082542;28;20232;-69
2021/12/04 07:04:40;;;;;;;4.50;3.75;;;;;;;;;;5082753;28;20546;-70
2021/12/04 07:07:06;;;;;;;4.75;4.05;;;;;;;;;;5082557;28;20204;-69
2021/12/04 07:09:33;;;;;;;4.32;3.75;;;;;;;;;;5082587;28;20392;-69
2021/12/04 07:12:00;;;;;;;4.65;4.25;;;;;;;;;;5082593;28;20496;-69
2021/12/04 07:14:28;;;;;;;5.43;4.57;;;;;;;;;;5082460;28;20227;-69
2021/12/04 07:16:54;;;;;;;4.28;3.97;;;;;;;;;;5082349;28;20218;-69
2021/12/04 07:19:21;;;;;;;4.28;3.97;;;;;;;;;;5083198;28;20232;-71
2021/12/04 07:21:47;;;;;;;3.13;3.03;;;;;;;;;;5082352;28;20203;-69
2021/12/04 07:24:14;;;;;;;3.47;3.22;;;;;;;;;;5082292;28;20234;-69
2021/12/04 07:26:41;;;;;;;2.58;2.40;;;;;;;;;;5082249;28;20265;-69
2021/12/04 07:29:07;;;;;;;2.47;2.38;;;;;;;;;;5082502;28;20501;-71
2021/12/04 07:31:37;;;;;;;2.42;2.33;;;;;;;;;;5082748;28;20203;-71
2021/12/04 07:34:03;;;;;;;3.05;2.85;;;;;;;;;;5082045;28;20224;-69
2021/12/04 07:36:30;;;;;;;3.22;3.03;;;;;;;;;;5082065;28;20200;-69
2021/12/04 07:38:56;;;;;;;3.35;2.72;;;;;;;;;;5082330;28;20523;-69
2021/12/04 07:41:23;;;;;;;3.10;2.90;;;;;;;;;;5082086;28;20196;-70
2021/12/04 07:43:49;;;;;;;3.70;3.40;;;;;;;;;;5081052;28;20192;-71
2021/12/04 07:46:16;;;;;;;4.75;4.00;;;;;;;;;;5081095;28;20407;-71
2021/12/04 07:48:43;;;;;;;6.55;5.88;;;;;;;;;;5079906;28;20550;-71
2021/12/04 07:51:10;;;;;;;8.40;5.45;;;;;;;;;;5079975;28;20197;-71
2021/12/04 07:53:37;;;;;;;6.38;5.75;;;;;;;;;;5079763;28;20258;-71
2021/12/04 07:56:04;;;;;;;6.20;5.60;;;;;;;;;;5080774;28;20223;-71
2021/12/04 07:58:30;;;;;;;5.68;5.28;;;;;;;;;;5081128;28;20504;-71
2021/12/04 08:00:57;;;;;;;6.32;5.72;;;;;;;;;;5081463;28;20197;-71
2021/12/04 08:03:23;;;;;;;4.90;4.55;;;;;;;;;;5080567;28;20404;-71
2021/12/04 08:05:51;;;;;;;4.75;4.43;;;;;;;;;;5080720;28;20202;-70
2021/12/04 08:08:18;;;;;;;5.10;4.63;;;;;;;;;;5080833;28;20203;-70
2021/12/04 08:10:44;;;;;;;4.63;4.30;;;;;;;;;;5080701;28;20196;-71
2021/12/04 08:13:11;;;;;;;4.72;4.32;;;;;;;;;;5080389;28;20197;-71
2021/12/04 08:15:37;;;;;;;5.40;4.90;;;;;;;;;;5080230;28;20216;-71
2021/12/04 08:18:04;;;;;;;10.63;6.78;;;;;;;;;;5081108;28;20481;-71
2021/12/04 08:20:31;;;;;;;6.60;4.45;;;;;;;;;;5082556;28;20196;-71
2021/12/04 08:22:58;;;;;;;7.65;4.40;;;;;;;;;;5087004;28;20225;-71
2021/12/04 08:25:25;;;;;;;5.25;4.78;;;;;;;;;;5087103;28;20201;-73
2021/12/04 08:27:52;;;;;;;5.43;4.93;;;;;;;;;;5084648;28;20219;-59
2021/12/04 08:30:20;;;;;;;4.10;3.75;;;;;;;;;;5084118;28;20203;-59
2021/12/04 08:32:48;;;;;;;4.38;4.07;;;;;;;;;;5084255;28;20212;-59
2021/12/04 08:35:18;;;;;;;4.00;3.63;;;;;;;;;;5083912;28;20220;-57
2021/12/04 08:37:44;;;;;;;4.43;4.13;;;;;;;;;;5085013;28;20264;-60
2021/12/04 08:40:14;;;;;;;5.25;4.82;;;;;;;;;;5086279;28;20200;-59
2021/12/04 08:42:41;;;;;;;6.45;4.93;;;;;;;;;;5084504;28;20192;-55
2021/12/04 08:45:09;;;;;;;5.55;5.00;;;;;;;;;;5083861;28;20223;-60
2021/12/04 08:47:37;;;;;;;5.65;5.15;;;;;;;;;;5084244;28;20263;-54
2021/12/04 08:50:04;;;;;;;5.72;4.70;;;;;;;;;;5084290;28;20196;-57
2021/12/04 08:52:30;;;;;;;6.65;4.55;;;;;;;;;;5084689;28;20258;-60
2021/12/04 08:54:57;;;;;;;4.90;4.40;;;;;;;;;;5084052;28;20220;-60
2021/12/04 08:57:25;;;;;;;8.30;4.63;;;;;;;;;;5084443;28;20303;-59
2021/12/04 08:59:52;;;;;;;4.90;4.38;;;;;;;;;;5083881;28;20197;-60
2021/12/04 09:02:19;;;;;;;7.10;5.32;;;;;;;;;;5084506;28;20196;-59
2021/12/04 09:04:47;;;;;;;28.90;18.23;;;;;;;;;;5083438;28;20457;-59
2021/12/04 09:07:14;;;;;;;8.68;7.05;;;;;;;;;;5083730;28;20237;-60
2021/12/04 09:09:40;;;;;;;7.60;4.88;;;;;;;;;;5083834;28;20237;-60
2021/12/04 09:12:08;;;;;;;6.10;4.78;;;;;;;;;;5072989;28;20223;-61
2021/12/04 09:14:37;;;;;;;6.82;5.55;;;;;;;;;;5073216;28;20225;-61
2021/12/04 09:17:06;;;;;;;7.10;6.15;;;;;;;;;;5069844;28;20211;-60
2021/12/04 09:19:32;;;;;;;6.72;5.45;;;;;;;;;;5072035;28;20225;-60
2021/12/04 09:21:59;;;;;;;6.55;5.22;;;;;;;;;;5079639;28;20212;-61
2021/12/04 09:24:27;;;;;;;8.20;5.78;;;;;;;;;;5070471;28;20570;-60
2021/12/04 09:27:02;;;;;;;10.35;5.80;;;;;;;;;;5071310;28;20212;-59
2021/12/04 09:32:47;;;;;;;5.65;5.05;;;;;;;;;;5066958;28;20204;-60
2021/12/04 10:00:10;;;;;;;10.38;5.20;;;;;;;;;;5083089;28;20255;-60
2021/12/04 10:03:02;;;;;;;8.23;5.07;;;;;;;;;;5083411;28;20227;-59
2021/12/04 10:14:12;;;;;;;7.68;5.53;;;;;;;;;;5082150;28;20188;-60
2021/12/04 10:19:43;;;;;;;6.15;5.40;;;;;;;;;;5082696;28;20184;-59
2021/12/04 10:22:22;;;;;;;6.18;5.57;;;;;;;;;;5082565;28;20526;-60
2021/12/04 10:25:14;;;;;;;9.18;6.25;;;;;;;;;;5082069;28;20180;-60
2021/12/04 10:33:13;;;;;;;6.00;5.40;;;;;;;;;;5082320;28;20244;-60
2021/12/04 10:35:40;;;;;;;10.02;7.30;;;;;;;;;;5082201;28;20216;-60
2021/12/04 10:38:14;;;;;;;7.93;5.82;;;;;;;;;;5082942;28;20204;-60
2021/12/04 10:40:42;;;;;;;5.20;4.80;;;;;;;;;;5082530;28;20207;-59
2021/12/04 10:43:12;;;;;;;8.85;4.95;;;;;;;;;;5082682;28;20196;-59
2021/12/04 10:45:39;;;;;;;8.32;5.15;;;;;;;;;;5082012;28;20224;-59
2021/12/04 10:48:09;;;;;;;5.72;5.13;;;;;;;;;;5082551;28;20251;-60
2021/12/04 10:50:43;;;;;;;6.05;4.70;;;;;;;;;;5082178;28;20197;-60
2021/12/04 10:53:16;;;;;;;9.95;8.40;;;;;;;;;;5082139;28;20260;-60
2021/12/04 10:55:48;;;;;;;7.50;6.05;;;;;;;;;;5081860;28;20283;-60
2021/12/04 11:01:24;;;;;;;8.77;5.10;;;;;;;;;;5081968;28;20176;-59
2021/12/04 11:03:57;;;;;;;7.82;5.78;;;;;;;;;;5082090;28;20416;-59
2021/12/04 11:06:43;;;;;;;8.52;5.20;;;;;;;;;;5081712;28;20180;-60
2021/12/04 11:26:25;;;;;;;9.70;6.75;;;;;;;;;;5070507;28;20189;-58
2021/12/04 11:34:53;;;;;;;11.27;6.60;;;;;;;;;;5075096;28;20205;-59
2021/12/04 11:40:12;;;;;;;9.75;7.22;;;;;;;;;;5071296;28;20208;-60
2021/12/04 11:42:41;;;;;;;9.98;7.55;;;;;;;;;;5066277;28;20213;-61
2021/12/04 11:45:14;;;;;;;9.90;7.68;;;;;;;;;;5076417;28;20323;-62
2021/12/04 11:47:42;;;;;;;12.85;10.00;;;;;;;;;;5077497;28;20217;-61
2021/12/04 11:50:17;;;;;;;11.38;8.82;;;;;;;;;;5075491;28;20223;-60
2021/12/04 11:52:45;;;;;;;7.97;6.90;;;;;;;;;;5064691;28;20204;-61
2021/12/04 11:55:12;;;;;;;7.20;6.60;;;;;;;;;;5075721;28;20508;-61
2021/12/04 11:57:40;;;;;;;9.20;7.15;;;;;;;;;;5076216;28;20219;-60
2021/12/04 12:00:11;;;;;;;7.80;6.35;;;;;;;;;;5074338;28;20222;-61
2021/12/04 12:02:38;;;;;;;13.57;6.68;;;;;;;;;;5080420;28;20474;-60
2021/12/04 12:05:08;;;;;;;7.22;5.60;;;;;;;;;;5081844;28;20197;-60
2021/12/04 12:07:34;;;;;;;5.60;5.07;;;;;;;;;;5082255;28;20444;-60
2021/12/04 12:10:04;;;;;;;4.25;3.90;;;;;;;;;;5075618;28;20201;-60
2021/12/04 12:12:32;;;;;;;4.40;4.00;;;;;;;;;;5072467;28;20202;-59
2021/12/04 12:15:04;;;;;;;4.45;3.83;;;;;;;;;;5066735;28;20231;-60
2021/12/04 12:17:32;;;;;;;3.75;3.40;;;;;;;;;;5073147;28;20204;-59
2021/12/04 12:19:58;;;;;;;3.70;3.42;;;;;;;;;;5071964;28;20208;-60
2021/12/04 12:22:33;;;;;;;3.70;2.78;;;;;;;;;;5072476;28;20212;-60
2021/12/04 12:25:16;;;;;;;9.25;6.22;;;;;;;;;;5078587;28;20200;-60
2021/12/04 12:27:56;;;;;;;13.10;6.97;;;;;;;;;;5078680;28;20254;-60
2021/12/04 12:33:15;;;;;;;7.00;4.93;;;;;;;;;;5078126;28;20235;-61
2021/12/04 12:38:32;;;;;;;6.80;4.75;;;;;;;;;;5078747;28;20290;-62
2021/12/04 12:40:59;;;;;;;4.57;4.20;;;;;;;;;;5078677;28;20608;-59
2021/12/04 12:43:33;;;;;;;5.68;4.38;;;;;;;;;;5083694;28;20203;-60
2021/12/04 12:46:00;;;;;;;4.88;4.47;;;;;;;;;;5084388;28;20247;-61
2021/12/04 12:48:27;;;;;;;4.10;3.80;;;;;;;;;;5084650;28;20197;-60
2021/12/04 12:50:54;;;;;;;3.63;3.10;;;;;;;;;;5084577;28;20196;-60
2021/12/04 12:53:22;;;;;;;4.85;2.92;;;;;;;;;;5083519;28;20521;-60
2021/12/04 12:55:53;;;;;;;1.55;1.45;;;;;;;;;;5084257;28;20410;-60
2021/12/04 12:58:22;;;;;;;1.20;1.20;;;;;;;;;;5084520;28;20426;-60
2021/12/04 13:11:55;;;;;;;2.35;2.25;;;;;;;;;;5083987;28;20230;-60
2021/12/04 13:14:23;;;;;;;7.72;5.45;;;;;;;;;;5084294;28;20264;-61
2021/12/04 13:16:51;;;;;;;3.60;3.33;;;;;;;;;;5083223;28;20417;-60
2021/12/04 13:19:22;;;;;;;5.93;4.70;;;;;;;;;;5083953;28;20430;-60
2021/12/04 13:21:50;;;;;;;3.35;3.10;;;;;;;;;;5083703;28;20387;-60
2021/12/04 13:24:17;;;;;;;2.38;2.28;;;;;;;;;;5083769;28;20343;-61
2021/12/04 13:26:45;;;;;;;0.88;0.88;;;;;;;;;;5083475;28;20192;-61
2021/12/04 13:29:12;;;;;;;1.45;1.25;;;;;;;;;;5083544;28;20196;-61
2021/12/04 13:31:39;;;;;;;1.08;1.02;;;;;;;;;;5083723;28;20224;-60
2021/12/04 13:34:06;;;;;;;0.80;0.80;;;;;;;;;;5083483;28;20204;-61
2021/12/04 13:36:34;;;;;;;0.80;0.80;;;;;;;;;;5083158;28;20265;-60
2021/12/04 13:39:03;;;;;;;1.38;0.80;;;;;;;;;;5083684;28;20534;-60
2021/12/04 13:41:29;;;;;;;1.95;1.38;;;;;;;;;;5083504;28;20228;-62
2021/12/04 13:43:57;;;;;;;1.30;1.20;;;;;;;;;;5083911;28;20496;-61
2021/12/04 13:46:24;;;;;;;0.70;0.70;;;;;;;;;;5083141;28;20220;-60
2021/12/04 13:48:51;;;;;;;1.38;0.95;;;;;;;;;;5083633;28;20288;-60
2021/12/04 13:51:17;;;;;;;0.68;0.68;;;;;;;;;;5083560;28;20196;-60
2021/12/04 13:53:47;;;;;;;1.38;1.38;;;;;;;;;;5083532;28;20268;-61
2021/12/04 13:56:14;;;;;;;1.15;0.73;;;;;;;;;;5082770;28;20224;-60
2021/12/04 13:58:44;;;;;;;0.80;0.80;;;;;;;;;;5083382;28;20200;-61
2021/12/04 14:01:11;;;;;;;2.55;1.40;;;;;;;;;;5083247;28;20197;-61
2021/12/04 14:03:38;;;;;;;2.22;2.00;;;;;;;;;;5083326;28;20196;-61
2021/12/04 14:06:09;;;;;;;2.40;2.30;;;;;;;;;;5083139;28;20200;-61
2021/12/04 14:08:36;;;;;;;1.60;1.05;;;;;;;;;;5083008;28;20185;-61
2021/12/04 14:11:04;;;;;;;5.72;1.95;;;;;;;;;;5082771;28;20508;-61
2021/12/04 14:13:30;;;;;;;0.75;0.75;;;;;;;;;;5082860;28;20370;-61
2021/12/04 14:15:56;;;;;;;2.78;2.58;;;;;;;;;;5082287;28;20228;-62
2021/12/04 14:18:24;;;;;;;2.75;2.30;;;;;;;;;;5081930;28;20258;-62
2021/12/04 14:21:00;;;;;;;4.82;3.63;;;;;;;;;;5083090;28;20219;-61
2021/12/04 14:23:27;;;;;;;2.58;1.60;;;;;;;;;;5082832;28;20503;-61
2021/12/04 14:25:54;;;;;;;1.15;1.15;;;;;;;;;;5082192;28;20199;-61
2021/12/04 14:28:24;;;;;;;0.98;0.50;;;;;;;;;;5082167;28;20227;-61
2021/12/04 14:30:51;;;;;;;2.30;2.20;;;;;;;;;;5082626;28;20181;-61
2021/12/04 14:33:19;;;;;;;2.35;1.33;;;;;;;;;;5082370;28;20216;-61
2021/12/04 14:35:47;;;;;;;1.10;1.10;;;;;;;;;;5082207;28;20543;-62
2021/12/04 14:38:15;;;;;;;1.10;1.10;;;;;;;;;;5082750;28;20204;-61
2021/12/04 14:40:43;;;;;;;3.22;1.40;;;;;;;;;;5082489;28;20199;-62
2021/12/04 14:43:10;;;;;;;1.70;1.35;;;;;;;;;;5082604;28;20250;-61
2021/12/04 14:45:40;;;;;;;0.90;0.90;;;;;;;;;;5081944;28;20404;-61
2021/12/04 14:48:08;;;;;;;4.20;3.00;;;;;;;;;;5082404;28;20196;-61
2021/12/04 14:50:35;;;;;;;5.03;3.13;;;;;;;;;;5082357;28;20196;-61
2021/12/04 14:53:02;;;;;;;1.00;1.00;;;;;;;;;;5082531;28;20242;-61
2021/12/04 14:55:30;;;;;;;1.13;1.13;;;;;;;;;;5082410;28;20497;-61
2021/12/04 14:57:57;;;;;;;0.85;0.85;;;;;;;;;;5081843;28;20196;-62
2021/12/04 15:00:25;;;;;;;3.30;0.88;;;;;;;;;;5082104;28;20476;-62
2021/12/04 15:02:55;;;;;;;0.80;0.80;;;;;;;;;;5081756;28;20203;-60
2021/12/04 15:05:25;;;;;;;1.13;0.90;;;;;;;;;;5081427;28;20192;-60
2021/12/04 15:07:59;;;;;;;2.05;1.02;;;;;;;;;;5081429;28;20242;-60
2021/12/04 15:10:25;;;;;;;0.85;0.85;;;;;;;;;;5081893;28;20203;-61
2021/12/04 15:12:55;;;;;;;1.15;0.75;;;;;;;;;;5081447;28;20215;-61
2021/12/04 15:15:21;;;;;;;1.63;0.70;;;;;;;;;;5081402;28;20196;-60
2021/12/04 15:17:54;;;;;;;0.95;0.95;;;;;;;;;;5081258;28;20197;-61
2021/12/04 15:20:28;;;;;;;1.02;0.88;;;;;;;;;;5081408;28;20185;-61
2021/12/04 15:22:57;;;;;;;1.60;1.27;;;;;;;;;;5081503;28;20231;-61
2021/12/04 15:25:26;;;;;;;1.42;1.30;;;;;;;;;;5080910;28;20234;-61
2021/12/04 15:27:52;;;;;;;1.80;1.70;;;;;;;;;;5081476;28;20416;-61
2021/12/04 15:30:19;;;;;;;2.03;1.60;;;;;;;;;;5081683;28;20205;-61
2021/12/04 15:32:46;;;;;;;4.57;1.50;;;;;;;;;;5080967;28;20208;-60
2021/12/04 15:35:24;;;;;;;2.53;2.08;;;;;;;;;;5081828;28;20184;-61
2021/12/04 15:37:53;;;;;;;1.58;1.38;;;;;;;;;;5081387;28;20199;-61
2021/12/04 15:40:25;;;;;;;1.60;1.60;;;;;;;;;;5080937;28;20484;-60
2021/12/04 15:42:59;;;;;;;1.40;1.10;;;;;;;;;;5080935;28;20443;-59
2021/12/04 15:45:36;;;;;;;1.23;1.13;;;;;;;;;;5080799;28;20216;-60
2021/12/04 15:48:19;;;;;;;5.63;1.20;;;;;;;;;;5081890;28;20275;-61
2021/12/04 15:51:00;;;;;;;1.60;1.10;;;;;;;;;;5081427;28;20426;-69
2021/12/04 15:53:27;;;;;;;1.50;1.20;;;;;;;;;;5083704;28;20268;-69
2021/12/04 15:55:56;;;;;;;1.75;1.30;;;;;;;;;;5082752;28;20270;-70
2021/12/04 15:58:23;;;;;;;1.13;1.08;;;;;;;;;;5083563;28;20342;-68
2021/12/04 16:00:53;;;;;;;1.77;1.40;;;;;;;;;;5083311;28;20196;-68
2021/12/04 16:03:20;;;;;;;2.10;1.35;;;;;;;;;;5083183;28;20207;-68
2021/12/04 16:05:50;;;;;;;1.75;1.55;;;;;;;;;;5083059;28;20232;-68
2021/12/04 16:08:18;;;;;;;1.58;1.48;;;;;;;;;;5083470;28;20398;-68
2021/12/04 16:10:46;;;;;;;1.65;0.80;;;;;;;;;;5082946;28;20394;-69
2021/12/04 16:13:16;;;;;;;1.58;1.48;;;;;;;;;;5082809;28;20196;-69
2021/12/04 16:15:43;;;;;;;1.45;1.35;;;;;;;;;;5082617;28;20254;-69
2021/12/04 16:18:09;;;;;;;1.00;1.00;;;;;;;;;;5083090;28;20204;-68
2021/12/04 16:20:36;;;;;;;0.88;0.82;;;;;;;;;;5082265;28;20339;-69
2021/12/04 16:23:05;;;;;;;1.05;1.05;;;;;;;;;;5082706;28;20220;-68
2021/12/04 16:25:36;;;;;;;1.17;1.13;;;;;;;;;;5082801;28;20284;-68
2021/12/04 16:28:08;;;;;;;2.22;1.17;;;;;;;;;;5083458;28;20181;-68
2021/12/04 16:30:40;;;;;;;3.45;1.10;;;;;;;;;;5082726;28;20196;-69
2021/12/04 16:33:29;;;;;;;1.02;1.02;;;;;;;;;;5082735;28;20411;-68
2021/12/04 16:36:03;;;;;;;0.90;0.90;;;;;;;;;;5082270;28;20195;-69
2021/12/04 16:38:31;;;;;;;1.20;1.20;;;;;;;;;;5082854;28;20403;-69
2021/12/04 16:41:02;;;;;;;1.92;1.15;;;;;;;;;;5083878;28;20196;-69
2021/12/04 16:43:33;;;;;;;3.38;1.13;;;;;;;;;;5086321;28;20208;-69
2021/12/04 16:46:01;;;;;;;1.33;1.33;;;;;;;;;;5085726;28;20217;-69
2021/12/04 16:48:33;;;;;;;1.00;1.00;;;;;;;;;;5086331;28;20212;-69
2021/12/04 16:56:37;;;;;;;1.30;1.30;;;;;;;;;;5085645;28;20226;-70
2021/12/04 16:59:05;;;;;;;1.35;1.20;;;;;;;;;;5086077;28;20196;-69
2021/12/04 17:01:34;;;;;;;1.00;1.00;;;;;;;;;;5086103;28;20196;-68
2021/12/04 17:04:00;;;;;;;1.55;1.48;;;;;;;;;;5086283;28;20476;-69
2021/12/04 17:06:27;;;;;;;1.15;1.15;;;;;;;;;;5085346;28;20242;-70
2021/12/04 17:08:55;;;;;;;1.52;1.52;;;;;;;;;;5085408;28;20234;-68
2021/12/04 17:11:21;;;;;;;1.33;1.33;;;;;;;;;;5086169;28;20271;-69
2021/12/04 17:13:48;;;;;;;1.50;1.13;;;;;;;;;;5085649;28;20196;-69
2021/12/04 17:16:15;;;;;;;1.40;1.13;;;;;;;;;;5084987;28;20208;-69
2021/12/04 17:18:48;;;;;;;1.17;1.08;;;;;;;;;;5086320;28;20196;-69